Latest Weather Observations for Bathurst Airport

IDN60801

Issued at 5:05 pm EST Monday 1 September 2014 (issued every 30 minutes, with the page automatically refreshed every 10 minutes)

About weather observations | Map of weather stations | Latest weather observations for NSW | Other Formats
Station Details ID: 063291 Name: BATHURST AIRPORT AWS Lat: -33.41 Lon: 149.65 Height: 744.5 m
Data from the previous 72 hours. | See also: Recent months for locations in New South Wales
Date/Time
EST
Temp
°C
App
Temp
°C
Dew
Point
Rel
Hum
%
Delta-T
°C
Wind Press
QNH
hPa
Press
MSL
hPa
Rain
since 9 am
mm
Dir
 
Spd
km/h
Gust
km/h
Spd
kts
Gust
kts
01/05:00pm 14.1 9.4 5.2 55 4.4 N 19 22 10 12 1013.9 1013.4 0.0
01/04:30pm 14.9 10.7 5.7 54 4.6 NNW 17 20 9 11 1013.7 - 0.0
01/04:00pm 16.1 11.0 4.2 45 5.8 NW 20 26 11 14 1013.8 1013.3 0.0
01/03:30pm 16.5 10.9 3.6 42 6.2 WNW 22 28 12 15 1013.7 - 0.0
01/03:00pm 17.2 11.7 3.8 41 6.5 WNW 22 26 12 14 1013.9 1013.4 0.0
01/02:30pm 16.0 10.1 3.8 44 5.9 WNW 24 30 13 16 1014.0 - 0.0
01/02:00pm 16.4 11.4 4.4 45 5.9 WNW 20 30 11 16 1014.2 1013.7 0.0
01/01:30pm 17.6 13.2 4.9 43 6.3 WNW 17 22 9 12 1014.9 - 0.0
01/01:00pm 17.5 12.2 5.1 44 6.2 NW 22 32 12 17 1015.3 1014.8 0.0
01/12:30pm 17.1 12.0 6.0 48 5.6 WNW 22 32 12 17 1015.9 - 0.0
01/12:00pm 16.6 12.5 6.1 50 5.3 NW 17 26 9 14 1016.7 1016.3 0.0
01/11:30am 15.7 11.8 7.0 56 4.5 NW 17 24 9 13 1016.9 - 0.0
01/11:00am 14.6 12.0 7.6 63 3.6 WNW 11 15 6 8 1017.3 1016.9 0.0
01/10:30am 13.4 10.2 7.0 65 3.2 NNW 13 17 7 9 1017.6 - 0.0
01/10:00am 11.1 9.0 6.8 75 2.1 NNW 7 9 4 5 1017.9 1017.5 0.0
01/09:30am 9.2 7.5 5.8 79 1.6 NE 4 7 2 4 1018.2 - 0.0
01/09:00am 6.0 3.5 3.8 86 1.0 W 6 9 3 5 1018.9 1019.4 0.0
01/08:30am 5.6 4.2 3.6 87 0.9 CALM 0 0 0 0 1019.0 - 0.0
01/08:00am 3.8 2.3 2.9 94 0.4 CALM 0 0 0 0 1019.1 1019.6 0.0
01/07:30am 1.4 -0.4 1.3 99 0.0 CALM 0 0 0 0 1019.3 - 0.0
01/07:00am -0.4 -2.5 -0.5 99 0.0 CALM 0 0 0 0 1019.0 1019.5 0.0
01/06:30am -0.1 -2.9 -0.2 99 0.0 SSW 4 7 2 4 1018.5 - 0.0
01/06:00am 0.4 -2.9 0.3 99 0.0 SE 7 7 4 4 1018.4 1019.0 0.0
01/05:30am 0.2 -1.8 0.1 99 0.0 CALM 0 0 0 0 1018.1 - 0.0
01/05:00am 0.9 -1.0 0.8 99 0.0 CALM 0 0 0 0 1018.0 1018.5 0.0
01/04:30am 1.1 -0.7 1.0 99 0.0 CALM 0 0 0 0 1018.0 - 0.0
01/04:00am 1.5 -0.3 1.4 99 0.0 CALM 0 0 0 0 1017.9 1018.4 0.0
01/03:30am 1.5 -1.4 1.4 99 0.0 SE 6 7 3 4 1017.8 - 0.0
01/03:00am 1.9 0.2 1.8 99 0.0 CALM 0 0 0 0 1017.7 1018.2 0.0
01/02:30am 2.0 0.3 1.9 99 0.0 CALM 0 0 0 0 1017.8 - 0.0
01/02:00am 1.5 -0.4 0.5 93 0.4 CALM 0 0 0 0 1018.0 1018.5 0.0
01/01:30am 3.5 0.8 2.6 94 0.4 SE 6 7 3 4 1018.2 - 0.0
01/01:00am 3.6 0.7 2.6 93 0.4 SSE 7 9 4 5 1018.6 1019.2 0.0
01/12:30am 4.2 1.3 2.7 90 0.6 S 7 9 4 5 1018.9 - 0.0
01/12:00am 4.2 2.6 2.4 88 0.8 ESE 0 0 0 0 1019.1 1019.6 0.0
 
Date/Time
EST
Temp
°C
App
Temp
°C
Dew
Point
Rel
Hum
%
Delta-T
°C
Wind Press
QNH
hPa
Press
MSL
hPa
Rain
since 9 am
mm
Dir
 
Spd
km/h
Gust
km/h
Spd
kts
Gust
kts
31/11:30pm 3.8 2.2 2.2 89 0.7 CALM 0 0 0 0 1019.2 - 0.0
31/11:00pm 3.9 1.1 1.9 87 0.8 ENE 6 7 3 4 1019.4 1020.0 0.0
31/10:30pm 4.8 1.5 2.2 83 1.1 ENE 9 9 5 5 1019.4 - 0.0
31/10:00pm 6.1 2.8 2.7 79 1.5 ENE 9 9 5 5 1019.6 1020.2 0.0
31/09:30pm 6.3 4.3 2.4 76 1.7 NNE 2 7 1 4 1019.5 - 0.0
31/09:00pm 7.5 5.9 2.6 71 2.1 CALM 0 0 0 0 1019.6 1020.2 0.0
31/08:30pm 8.5 5.8 2.7 67 2.6 E 6 7 3 4 1019.4 - 0.0
31/08:00pm 8.9 6.3 3.1 67 2.6 ENE 6 7 3 4 1019.3 1019.9 0.0
31/07:30pm 8.1 5.3 1.9 65 2.7 S 6 7 3 4 1019.3 - 0.0
31/07:00pm 10.8 7.6 2.9 58 3.6 SSW 9 9 5 5 1019.0 1019.5 0.0
31/06:30pm 11.5 8.2 2.3 53 4.1 SSW 9 11 5 6 1018.9 - 0.0
31/06:00pm 12.1 8.7 1.7 49 4.6 SW 9 9 5 5 1018.5 1019.1 0.0
31/05:30pm 12.9 9.6 2.2 48 4.9 SSW 9 9 5 5 1018.2 - 0.0
31/05:00pm 14.5 10.9 3.0 46 5.4 SSW 11 13 6 7 1018.2 1018.8 0.0
31/04:30pm 15.6 11.5 2.1 40 6.3 SW 13 15 7 8 1018.2 - 0.0
31/04:00pm 15.8 11.8 2.6 41 6.2 SW 13 17 7 9 1018.2 1018.8 0.0
31/03:30pm 15.9 11.1 2.7 41 6.2 SSW 17 22 9 12 1018.3 - 0.0
31/03:00pm 16.2 12.3 3.3 42 6.1 SSW 13 24 7 13 1018.5 1019.1 0.0
31/02:30pm 15.3 11.5 3.8 46 5.5 SW 13 19 7 10 1018.9 - 0.0
31/02:00pm 16.3 13.8 4.0 44 5.9 SW 6 11 3 6 1018.9 1019.4 0.0
31/01:30pm 16.3 13.8 5.0 47 5.6 WSW 7 13 4 7 1019.2 - 0.0
31/01:00pm 15.4 12.3 3.5 45 5.7 WSW 9 13 5 7 1019.8 1020.4 0.0
31/12:30pm 15.4 12.2 3.2 44 5.8 WNW 9 15 5 8 1020.4 - 0.0
31/12:00pm 14.7 11.9 2.3 43 5.7 WNW 6 11 3 6 1020.8 1021.4 0.0
31/11:30am 13.6 10.7 4.7 55 4.3 W 9 11 5 6 1021.1 - 0.0
31/11:00am 12.5 10.3 6.1 65 3.1 W 7 11 4 6 1021.5 1022.1 0.0
31/10:30am 11.2 9.1 6.5 73 2.3 W 7 11 4 6 1022.0 - 0.0
31/10:00am 10.2 8.8 7.4 83 1.4 WNW 4 9 2 5 1022.1 1022.7 0.0
31/09:30am 8.5 7.0 7.0 90 0.7 W 4 7 2 4 1022.2 - 0.0
31/09:00am 6.6 5.7 6.2 97 0.2 CALM 0 0 0 0 1022.4 1023.0 0.0
31/08:39am 5.2 3.3 5.1 99 0.0 WSW 4 7 2 4 1022.5 - 0.0
31/08:30am 4.8 3.2 4.7 99 0.0 W 2 6 1 3 1022.5 - 0.0
31/08:16am 3.8 2.0 3.7 99 0.0 WSW 2 7 1 4 1022.5 - 0.0
31/08:00am 3.5 1.7 3.5 100 0.0 WNW 2 7 1 4 1022.5 1023.1 0.0
31/07:47am 2.9 1.4 2.9 100 0.0 CALM 0 0 0 0 1022.3 - 0.0
31/07:34am 3.0 1.5 3.0 100 0.0 CALM 0 0 0 0 1022.1 - 0.0
31/07:30am 2.7 1.1 2.7 100 0.0 CALM 0 0 0 0 1022.1 - 0.0
31/07:15am 2.0 0.3 1.9 99 0.0 CALM 0 0 0 0 1022.1 - 0.0
31/07:03am 1.6 -0.2 1.5 99 0.0 CALM 0 0 0 0 1022.0 - 0.0
31/07:00am 1.5 -0.3 1.4 99 0.0 CALM 0 0 0 0 1022.0 1022.6 0.0
31/06:30am 0.4 -2.3 0.3 99 0.0 S 4 7 2 4 1021.8 - 0.0
31/06:25am 0.7 -2.0 0.6 99 0.0 S 4 9 2 5 1021.6 - 0.0
31/06:00am 1.2 -1.9 1.1 99 0.0 S 7 9 4 5 1021.3 1021.9 0.0
31/05:44am 0.6 -1.7 0.5 99 0.0 E 2 9 1 5 1021.2 - 0.0
31/05:30am 0.9 -1.0 0.8 99 0.0 CALM 0 6 0 3 1021.2 - 0.0
31/05:03am 1.2 -1.4 1.1 99 0.0 E 4 9 2 5 1021.1 - 0.0
31/05:00am 1.2 -1.0 1.1 99 0.0 E 2 7 1 4 1021.1 1021.7 0.0
31/04:30am 1.3 -0.9 1.2 99 0.0 SSE 2 6 1 3 1021.2 - 0.0
31/04:25am 1.6 -0.5 1.5 99 0.0 SSE 2 7 1 4 1021.2 - 0.0
31/04:06am 2.9 0.2 2.8 99 0.0 S 6 9 3 5 1021.2 - 0.0
31/04:00am 3.4 0.8 3.3 99 0.0 S 6 11 3 6 1021.2 1021.8 0.0
31/03:47am 3.0 -0.6 2.9 99 0.0 SSW 11 11 6 6 1021.2 - 0.0
31/03:30am 3.0 0.2 2.9 99 0.0 SW 7 9 4 5 1021.4 - 0.0
31/03:00am 4.4 1.8 4.3 99 0.0 E 7 9 4 5 1021.4 1022.0 0.0
31/02:30am 4.0 1.3 3.9 99 0.0 ENE 7 9 4 5 1021.8 - 0.0
31/02:00am 4.0 1.5 3.9 99 0.0 NW 6 7 3 4 1022.0 1022.6 0.0
31/01:30am 4.8 3.6 4.7 99 0.0 CALM 0 0 0 0 1022.3 - 0.0
31/01:00am 6.8 3.7 5.4 91 0.6 SE 11 13 6 7 1022.4 1023.0 0.0
31/12:30am 6.9 3.8 5.5 91 0.7 SSE 11 13 6 7 1022.4 - 0.0
31/12:00am 6.8 4.1 5.4 91 0.6 SSE 9 11 5 6 1022.6 1023.2 0.0
 
Date/Time
EST
Temp
°C
App
Temp
°C
Dew
Point
Rel
Hum
%
Delta-T
°C
Wind Press
QNH
hPa
Press
MSL
hPa
Rain
since 9 am
mm
Dir
 
Spd
km/h
Gust
km/h
Spd
kts
Gust
kts
30/11:30pm 6.7 4.2 5.0 89 0.8 S 7 9 4 5 1022.7 - 0.0
30/11:00pm 7.1 3.9 5.1 87 0.9 S 11 13 6 7 1022.9 1023.6 0.0
30/10:30pm 8.1 5.0 5.6 84 1.2 SSE 11 15 6 8 1022.9 - 0.0
30/10:00pm 9.0 6.1 6.3 83 1.3 S 11 15 6 8 1023.0 1023.7 0.0
30/09:30pm 9.4 7.3 6.8 84 1.3 S 7 11 4 6 1023.3 - 0.0
30/09:00pm 9.6 7.2 6.9 83 1.3 S 9 11 5 6 1023.4 1024.0 0.0
30/08:30pm 9.0 6.5 6.4 84 1.3 S 9 11 5 6 1023.3 - 0.0
30/08:00pm 9.8 6.6 6.7 81 1.5 SSE 13 17 7 9 1023.3 1023.9 0.0
30/07:30pm 9.7 6.5 7.0 83 1.3 SSE 13 15 7 8 1023.1 - 0.0
30/07:00pm 9.5 7.0 6.4 81 1.5 ESE 9 11 5 6 1022.8 1023.5 0.0
30/06:30pm 10.0 7.1 6.7 80 1.6 SE 11 15 6 8 1022.6 - 0.0
30/06:00pm 11.3 9.4 6.8 74 2.2 ESE 6 9 3 5 1022.6 1023.2 0.0
30/05:30pm 12.2 9.8 6.9 70 2.6 SE 9 11 5 6 1022.5 - 0.0
30/05:00pm 12.9 10.0 6.5 65 3.2 SE 11 15 6 8 1022.3 1022.9 0.0
30/04:30pm 13.2 9.9 6.5 64 3.3 ESE 13 19 7 10 1022.2 - 0.0
30/04:00pm 13.4 9.7 6.5 63 3.4 SE 15 20 8 11 1022.2 1022.8 0.0
30/03:30pm 13.4 9.4 6.5 63 3.4 SE 17 28 9 15 1022.2 - 0.0
30/03:00pm 14.3 11.0 6.4 59 3.9 SE 13 17 7 9 1022.2 1022.8 0.0
30/02:30pm 13.9 10.2 6.5 61 3.7 S 15 20 8 11 1022.5 - 0.0
30/02:00pm 14.5 11.3 6.8 60 3.9 S 13 20 7 11 1022.8 1023.5 0.0
30/01:30pm 13.8 9.4 6.4 61 3.7 S 19 26 10 14 1023.0 - 0.0
30/01:00pm 14.9 11.0 7.2 60 3.9 SSE 17 24 9 13 1023.4 1024.0 0.0
30/12:30pm 13.6 9.1 6.2 61 3.7 SE 19 24 10 13 1023.7 - 0.0
30/12:00pm 14.4 10.1 7.7 64 3.4 SE 20 30 11 16 1024.0 1024.7 0.0
30/11:30am 13.8 10.2 6.7 62 3.6 SSE 15 24 8 13 1024.2 - 0.0
30/11:00am 13.0 9.5 7.0 67 3.0 SSE 15 24 8 13 1024.3 1025.0 0.0
30/10:30am 12.4 9.5 6.5 67 2.9 S 11 15 6 8 1024.7 - 0.0
30/10:00am 10.8 8.2 6.2 73 2.2 SW 9 15 5 8 1024.8 1025.4 0.0
30/09:30am 9.3 7.0 5.9 79 1.6 SW 7 13 4 7 1024.8 - 0.0
30/09:00am 7.8 6.3 4.9 82 1.3 W 2 7 1 4 1025.1 1025.8 0.2
30/08:30am 6.6 4.2 4.4 86 1.0 SSW 6 9 3 5 1025.1 - 0.2
30/08:00am 5.2 3.1 3.7 90 0.7 SSW 4 7 2 4 1025.0 1025.6 0.2
30/07:30am 3.2 1.7 3.1 99 0.0 CALM 0 6 0 3 1024.9 - 0.2
30/07:00am 2.1 -0.7 2.0 99 0.0 NNE 6 9 3 5 1024.9 1025.5 0.2
30/06:30am 2.1 -0.9 1.8 98 0.1 S 7 9 4 5 1024.7 - 0.2
30/06:00am 1.7 -1.1 -0.4 86 0.8 SE 4 7 2 4 1024.3 1025.0 0.2
30/05:30am 2.9 -0.5 1.9 93 0.4 SE 9 11 5 6 1024.2 - 0.2
30/05:00am 1.4 -1.7 1.3 99 0.0 ENE 7 9 4 5 1024.3 1025.0 0.2
30/04:30am 0.3 -3.5 -0.5 94 0.3 NE 9 11 5 6 1024.3 - 0.2
30/04:00am 2.7 -0.9 0.8 87 0.8 S 9 9 5 5 1024.1 1024.8 0.2
30/03:30am 2.9 -0.2 1.3 89 0.6 SSW 7 13 4 7 1024.1 - 0.2
30/03:00am 2.5 -0.4 1.3 92 0.5 S 6 7 3 4 1024.1 1024.8 0.2
30/02:30am 2.6 -0.9 1.3 91 0.5 S 9 11 5 6 1024.2 - 0.2
30/02:00am 3.5 -0.3 1.5 87 0.8 S 11 15 6 8 1024.3 1025.0 0.2
30/01:30am 3.7 -0.5 1.4 85 0.9 S 13 17 7 9 1024.5 - 0.2
30/01:00am 4.7 0.2 2.1 83 1.1 S 15 17 8 9 1024.9 1025.5 0.2
30/12:30am 4.1 0.4 2.1 87 0.8 S 11 15 6 8 1025.0 - 0.2
30/12:00am 4.7 0.6 2.2 84 1.0 S 13 17 7 9 1025.1 1025.8 0.2
 
Date/Time
EST
Temp
°C
App
Temp
°C
Dew
Point
Rel
Hum
%
Delta-T
°C
Wind Press
QNH
hPa
Press
MSL
hPa
Rain
since 9 am
mm
Dir
 
Spd
km/h
Gust
km/h
Spd
kts
Gust
kts
29/11:30pm 4.9 1.2 2.6 85 1.0 S 11 15 6 8 1025.1 - 0.2
29/11:00pm 5.0 1.3 2.5 84 1.1 S 11 13 6 7 1025.2 1025.9 0.2
29/10:30pm 3.9 1.1 1.8 86 0.9 S 6 9 3 5 1025.4 - 0.2
29/10:00pm 4.2 0.8 2.1 86 0.9 SW 9 11 5 6 1025.5 1026.2 0.2
29/09:30pm 5.3 1.9 2.0 79 1.4 S 9 13 5 7 1025.5 - 0.2
29/09:00pm 5.8 2.4 2.1 77 1.6 SSE 9 13 5 7 1025.6 1026.3 0.2
29/08:30pm 6.4 2.7 2.1 74 1.8 S 11 15 6 8 1025.5 - 0.2
29/08:00pm 6.8 3.4 1.9 71 2.1 SE 9 13 5 7 1025.4 1026.1 0.2
29/07:30pm 7.8 4.4 2.1 67 2.5 SE 9 13 5 7 1025.3 - 0.2
29/07:00pm 8.8 4.3 2.4 64 2.8 S 15 19 8 10 1025.1 1025.8 0.2
29/06:30pm 9.6 5.1 2.2 60 3.3 S 15 20 8 11 1024.9 - 0.2
29/06:00pm 10.2 5.3 1.8 56 3.7 S 17 20 9 11 1024.8 1025.4 0.2
29/05:30pm 11.4 6.2 2.2 53 4.1 S 19 24 10 13 1024.5 - 0.2

Other Formats:

Comma delimited format used in spreadsheet applications
http://www.bom.gov.au/fwo/IDN60801/IDN60801.94729.axf

JavaScript Object Notation format (JSON) in row-major order
http://www.bom.gov.au/fwo/IDN60801/IDN60801.94729.json